Time;durP1;ratioP1;P1;durP2;ratioP2;P2;SDS_P1;SDS_P2;PMS_P1;PMS_P2;Temp;Humidity;BMP_temperature;BMP_pressure;BME280_temperature;BME280_humidity;BME280_pressure;Samples;Min_cycle;Max_cycle;Signal;HPM_P1;HPM_P2
2022/04/25 00:02:22;;;;;;;10.52;2.97;;;7.00;72.80;;;;;;4854628;29;20050;-72
2022/04/25 00:04:51;;;;;;;13.05;2.78;;;6.90;73.00;;;;;;4859213;29;20060;-72
2022/04/25 00:07:18;;;;;;;8.52;2.40;;;6.80;72.90;;;;;;4857866;29;20506;-72
2022/04/25 00:09:46;;;;;;;14.38;2.78;;;6.80;73.20;;;;;;4858967;29;20037;-72
2022/04/25 00:12:13;;;;;;;6.53;2.55;;;6.70;73.20;;;;;;4851725;29;20069;-72
2022/04/25 00:14:42;;;;;;;14.55;2.70;;;6.60;73.30;;;;;;4858260;29;20050;-72
2022/04/25 00:17:09;;;;;;;9.70;2.50;;;6.60;73.60;;;;;;4857990;29;20057;-72
2022/04/25 00:19:37;;;;;;;11.73;3.08;;;6.60;73.50;;;;;;4857628;29;20045;-73
2022/04/25 00:22:04;;;;;;;7.65;2.40;;;6.50;73.50;;;;;;4858316;29;20051;-72
2022/04/25 00:24:32;;;;;;;11.25;2.92;;;6.50;73.60;;;;;;4822762;29;20054;-72
2022/04/25 00:27:00;;;;;;;12.20;3.05;;;6.40;73.70;;;;;;4843110;29;20053;-72
2022/04/25 00:29:28;;;;;;;9.23;2.72;;;6.30;73.90;;;;;;4849825;29;20058;-72
2022/04/25 00:31:55;;;;;;;9.32;2.42;;;6.30;74.00;;;;;;4858899;29;20062;-73
2022/04/25 00:34:23;;;;;;;11.23;2.42;;;6.30;74.20;;;;;;4873068;29;20046;-72
2022/04/25 00:36:51;;;;;;;8.43;2.55;;;6.40;74.10;;;;;;4857610;29;20383;-72
2022/04/25 00:39:18;;;;;;;8.38;2.83;;;6.30;74.00;;;;;;4859000;29;20080;-72
2022/04/25 00:41:46;;;;;;;12.70;2.65;;;6.30;74.00;;;;;;4858413;29;20048;-72
2022/04/25 00:44:16;;;;;;;10.05;2.58;;;6.30;74.10;;;;;;4859525;29;20054;-72
2022/04/25 00:46:47;;;;;;;14.18;2.70;;;6.30;74.20;;;;;;4859368;29;20053;-73
2022/04/25 00:49:15;;;;;;;12.57;2.80;;;6.30;74.20;;;;;;4859557;29;20048;-72
2022/04/25 00:51:42;;;;;;;10.57;2.70;;;6.20;74.20;;;;;;4858281;29;20053;-72
2022/04/25 00:54:10;;;;;;;14.73;2.90;;;6.20;74.30;;;;;;4841010;29;20057;-72
2022/04/25 00:56:38;;;;;;;9.38;2.65;;;6.20;74.30;;;;;;4859275;29;20058;-72
2022/04/25 00:59:06;;;;;;;11.18;3.05;;;6.10;74.20;;;;;;4841873;29;20053;-72
2022/04/25 01:01:35;;;;;;;16.52;2.78;;;6.10;74.30;;;;;;4836958;29;20530;-72
2022/04/25 01:04:04;;;;;;;11.93;3.08;;;6.00;74.50;;;;;;4855322;29;20073;-72
2022/04/25 01:06:31;;;;;;;10.23;2.70;;;5.90;74.60;;;;;;4862887;29;20048;-73
2022/04/25 01:08:59;;;;;;;12.60;2.97;;;5.80;74.70;;;;;;4862795;29;20224;-72
2022/04/25 01:11:27;;;;;;;10.43;2.95;;;5.80;74.70;;;;;;4862742;29;20057;-73
2022/04/25 01:13:55;;;;;;;10.15;2.80;;;5.80;74.90;;;;;;4845766;29;20061;-72
2022/04/25 01:16:22;;;;;;;10.27;3.28;;;5.80;74.90;;;;;;4846780;29;20050;-72
2022/04/25 01:18:50;;;;;;;7.38;3.17;;;5.80;74.90;;;;;;4844233;29;20054;-73
2022/04/25 01:21:20;;;;;;;10.05;2.75;;;5.90;74.80;;;;;;4844506;29;20424;-72
2022/04/25 01:29:19;;;;;;;10.93;3.20;;;6.00;74.60;;;;;;4859111;29;20514;-72
2022/04/25 01:31:47;;;;;;;10.27;3.25;;;6.00;74.40;;;;;;4853566;29;20057;-72
2022/04/25 01:34:15;;;;;;;8.35;3.00;;;6.00;74.40;;;;;;4861970;29;20064;-72
2022/04/25 01:36:42;;;;;;;15.02;2.97;;;5.90;74.50;;;;;;4861152;29;20056;-72
2022/04/25 01:39:10;;;;;;;9.40;3.15;;;5.80;74.60;;;;;;4861767;29;20523;-72
2022/04/25 01:41:37;;;;;;;16.27;3.00;;;5.80;74.70;;;;;;4858115;29;20057;-72
2022/04/25 01:44:05;;;;;;;12.45;2.83;;;5.80;74.80;;;;;;4844011;29;20057;-72
2022/04/25 01:46:34;;;;;;;15.73;3.47;;;5.70;74.90;;;;;;4842416;29;20060;-72
2022/04/25 01:49:01;;;;;;;6.43;2.80;;;5.70;75.00;;;;;;4865569;29;20295;-72
2022/04/25 01:51:29;;;;;;;11.60;3.45;;;5.60;75.10;;;;;;4876938;29;20061;-72
2022/04/25 01:53:56;;;;;;;12.48;2.95;;;5.50;75.20;;;;;;4861310;29;20058;-73
2022/04/25 01:56:24;;;;;;;9.18;3.08;;;5.40;75.30;;;;;;4861599;29;20432;-72
2022/04/25 01:58:52;;;;;;;9.95;2.80;;;5.30;75.50;;;;;;4862001;29;20381;-72
2022/04/25 02:01:20;;;;;;;10.40;3.28;;;5.30;75.70;;;;;;4861054;29;20423;-72
2022/04/25 02:03:47;;;;;;;12.82;3.17;;;5.20;75.90;;;;;;4862005;29;20046;-72
2022/04/25 02:06:15;;;;;;;14.35;3.30;;;5.00;76.00;;;;;;4849649;29;20058;-72
2022/04/25 02:08:43;;;;;;;11.88;4.10;;;5.00;76.30;;;;;;4826858;29;20058;-72
2022/04/25 02:11:20;;;;;;;6.80;3.10;;;4.90;76.50;;;;;;4848442;29;20053;-73
2022/04/25 02:13:52;;;;;;;14.13;3.88;;;4.80;76.60;;;;;;4860678;29;20042;-72
2022/04/25 02:16:21;;;;;;;7.75;3.60;;;4.80;76.80;;;;;;4861327;29;20050;-72
2022/04/25 02:18:49;;;;;;;10.13;4.07;;;4.80;77.00;;;;;;4861436;29;20060;-72
2022/04/25 02:21:17;;;;;;;19.55;4.50;;;4.70;77.20;;;;;;4820370;29;20420;-72
2022/04/25 02:23:46;;;;;;;20.10;5.15;;;4.70;77.30;;;;;;4857498;29;20057;-72
2022/04/25 02:26:14;;;;;;;16.05;5.00;;;4.60;77.50;;;;;;4859292;29;20062;-72
2022/04/25 02:28:41;;;;;;;20.38;5.65;;;4.50;77.60;;;;;;4861497;29;20054;-72
2022/04/25 02:31:09;;;;;;;23.00;6.00;;;4.30;77.70;;;;;;4855945;29;20057;-73
2022/04/25 02:33:36;;;;;;;19.52;6.32;;;4.30;78.00;;;;;;4843191;29;20046;-72
2022/04/25 02:36:04;;;;;;;21.35;6.25;;;4.20;78.30;;;;;;4859684;29;20068;-72
2022/04/25 02:38:36;;;;;;;15.40;5.82;;;4.10;78.70;;;;;;4860523;29;20415;-72
2022/04/25 02:41:04;;;;;;;14.60;5.28;;;4.00;78.90;;;;;;4860584;29;20069;-72
2022/04/25 02:43:36;;;;;;;12.85;5.53;;;4.00;79.10;;;;;;4843132;29;20046;-72
2022/04/25 02:46:06;;;;;;;12.07;5.10;;;4.00;79.20;;;;;;4859974;29;20072;-72
2022/04/25 02:48:38;;;;;;;13.77;4.47;;;3.90;79.20;;;;;;4847027;29;20061;-72
2022/04/25 02:51:07;;;;;;;14.48;4.78;;;3.90;79.30;;;;;;4842567;29;20065;-72
2022/04/25 02:53:35;;;;;;;11.07;4.80;;;3.80;79.30;;;;;;4846995;29;20050;-72
2022/04/25 02:56:03;;;;;;;11.23;5.03;;;3.80;79.40;;;;;;4853828;29;20436;-72
2022/04/25 02:58:32;;;;;;;21.48;6.40;;;3.80;79.50;;;;;;4861036;29;20396;-72
2022/04/25 03:01:00;;;;;;;22.42;7.15;;;3.70;79.70;;;;;;4860271;29;20065;-73
2022/04/25 03:03:28;;;;;;;22.65;7.63;;;3.70;79.90;;;;;;4860886;29;20049;-71
2022/04/25 03:05:56;;;;;;;20.30;7.78;;;3.70;80.10;;;;;;4854405;29;20061;-71
2022/04/25 03:08:24;;;;;;;14.60;5.70;;;3.60;80.20;;;;;;4842164;29;20377;-71
2022/04/25 03:10:52;;;;;;;13.85;5.38;;;3.50;80.40;;;;;;4838123;29;20416;-71
2022/04/25 03:13:21;;;;;;;12.00;5.82;;;3.50;80.70;;;;;;4843991;29;20057;-71
2022/04/25 03:15:48;;;;;;;13.20;4.93;;;3.50;80.80;;;;;;4859995;29;20050;-71
2022/04/25 03:18:21;;;;;;;13.15;5.22;;;3.40;80.90;;;;;;4860574;29;20054;-71
2022/04/25 03:20:50;;;;;;;16.65;5.32;;;3.30;81.00;;;;;;4868611;29;20056;-71
2022/04/25 03:23:19;;;;;;;17.13;5.28;;;3.40;81.20;;;;;;4860108;29;20080;-71
2022/04/25 03:25:48;;;;;;;10.25;5.07;;;3.30;81.20;;;;;;4860335;29;20049;-71
2022/04/25 03:28:16;;;;;;;9.85;4.80;;;3.30;81.20;;;;;;4858807;29;20053;-71
2022/04/25 03:30:44;;;;;;;13.55;5.10;;;3.30;81.20;;;;;;4858883;29;20056;-71
2022/04/25 03:33:12;;;;;;;17.73;5.70;;;3.20;81.30;;;;;;4843595;29;20054;-71
2022/04/25 03:35:41;;;;;;;15.68;5.55;;;3.10;81.40;;;;;;4847512;29;20387;-72
2022/04/25 03:38:10;;;;;;;22.35;6.10;;;3.00;81.50;;;;;;4879153;29;20399;-71
2022/04/25 03:40:38;;;;;;;15.68;6.60;;;2.90;81.70;;;;;;4857447;29;20072;-71
2022/04/25 03:43:09;;;;;;;23.70;7.22;;;2.80;81.80;;;;;;4840745;29;20054;-71
2022/04/25 03:45:37;;;;;;;22.95;7.90;;;2.70;82.00;;;;;;4841776;29;20053;-71
2022/04/25 03:48:05;;;;;;;15.32;7.30;;;2.70;82.10;;;;;;4843335;29;20503;-71
2022/04/25 03:50:32;;;;;;;19.65;8.20;;;2.70;82.40;;;;;;4859384;29;20049;-72
2022/04/25 03:53:11;;;;;;;24.63;7.90;;;2.60;82.60;;;;;;4858950;29;20057;-72
2022/04/25 03:58:25;;;;;;;21.70;6.97;;;2.60;83.00;;;;;;4848418;29;20058;-72
2022/04/25 04:00:53;;;;;;;22.35;6.88;;;2.60;83.10;;;;;;4867123;29;20053;-72
2022/04/25 04:03:20;;;;;;;17.48;7.00;;;2.40;83.10;;;;;;4844736;29;20604;-72
2022/04/25 04:05:50;;;;;;;23.10;6.90;;;2.30;83.30;;;;;;4856408;29;20052;-72
2022/04/25 04:08:18;;;;;;;24.83;7.38;;;2.30;83.50;;;;;;4842410;29;20500;-71
2022/04/25 04:10:46;;;;;;;20.10;7.18;;;2.30;83.80;;;;;;4859142;29;20045;-72
2022/04/25 04:13:15;;;;;;;22.27;7.82;;;2.30;83.90;;;;;;4844344;29;20050;-72
2022/04/25 04:15:43;;;;;;;23.30;8.32;;;2.30;83.90;;;;;;4844525;29;20053;-72
2022/04/25 04:18:11;;;;;;;27.60;8.23;;;2.20;83.90;;;;;;4859774;29;20053;-72
2022/04/25 04:20:39;;;;;;;24.10;8.23;;;2.10;84.00;;;;;;4859125;29;20492;-71
2022/04/25 04:23:07;;;;;;;19.42;7.63;;;2.00;84.20;;;;;;4844640;29;20524;-71
2022/04/25 04:25:34;;;;;;;22.10;7.85;;;2.00;84.30;;;;;;4841005;29;20054;-71
2022/04/25 04:28:02;;;;;;;23.25;8.23;;;1.90;84.40;;;;;;4841381;29;20065;-71
2022/04/25 04:30:30;;;;;;;25.25;7.60;;;1.80;84.60;;;;;;4852692;29;20515;-72
2022/04/25 04:32:58;;;;;;;18.60;9.13;;;1.80;84.60;;;;;;4850850;29;20053;-72
2022/04/25 04:38:26;;;;;;;40.20;8.57;;;1.80;84.80;;;;;;4788078;30;20504;-72
2022/04/25 04:40:53;;;;;;;29.90;8.05;;;1.80;84.80;;;;;;4787703;30;20063;-72
2022/04/25 04:43:21;;;;;;;44.30;9.10;;;1.80;84.80;;;;;;4810558;29;20071;-72
2022/04/25 04:45:48;;;;;;;29.20;8.40;;;1.80;84.90;;;;;;4808964;29;20061;-71
2022/04/25 04:48:16;;;;;;;26.27;7.95;;;1.80;84.90;;;;;;4835279;29;20061;-71
2022/04/25 04:50:44;;;;;;;24.67;8.27;;;1.70;85.00;;;;;;4827117;29;20045;-71
2022/04/25 04:53:11;;;;;;;26.67;8.13;;;1.70;85.10;;;;;;4823925;29;20440;-72
2022/04/25 04:55:39;;;;;;;23.08;9.10;;;1.70;85.20;;;;;;4823708;29;20051;-72
2022/04/25 04:58:06;;;;;;;34.05;9.13;;;1.60;85.40;;;;;;4824100;29;20613;-72
2022/04/25 05:00:34;;;;;;;27.58;8.23;;;1.60;85.40;;;;;;4823051;29;20058;-72
2022/04/25 05:03:02;;;;;;;26.77;9.30;;;1.60;85.40;;;;;;4823965;29;20059;-72
2022/04/25 05:05:30;;;;;;;20.30;8.38;;;1.50;85.50;;;;;;4823066;29;20065;-72
2022/04/25 05:07:58;;;;;;;27.48;9.52;;;1.50;85.50;;;;;;4822891;29;20425;-71
2022/04/25 05:10:25;;;;;;;28.25;9.98;;;1.50;85.60;;;;;;4808606;29;20428;-71
2022/04/25 05:12:54;;;;;;;33.63;10.35;;;1.50;85.70;;;;;;4808632;29;20058;-71
2022/04/25 05:15:22;;;;;;;32.15;11.98;;;1.50;85.80;;;;;;4862504;29;20061;-72
2022/04/25 05:17:53;;;;;;;28.33;10.35;;;1.60;85.80;;;;;;4862019;29;20049;-73
2022/04/25 05:20:23;;;;;;;23.70;8.68;;;1.60;85.80;;;;;;4848236;29;20058;-71
2022/04/25 05:22:51;;;;;;;16.23;7.88;;;1.60;85.80;;;;;;4844237;29;20050;-70
2022/04/25 05:25:20;;;;;;;22.33;8.48;;;1.60;85.90;;;;;;4844093;29;20403;-72
2022/04/25 05:27:50;;;;;;;16.83;8.20;;;1.70;85.90;;;;;;4828404;29;20049;-72
2022/04/25 05:30:19;;;;;;;16.45;7.47;;;1.60;85.90;;;;;;4858851;29;20049;-70
2022/04/25 05:32:48;;;;;;;20.13;8.52;;;1.70;85.90;;;;;;4861348;29;20504;-71
2022/04/25 05:35:17;;;;;;;13.27;8.07;;;1.70;86.00;;;;;;4862549;29;20061;-71
2022/04/25 05:37:46;;;;;;;18.13;8.63;;;1.70;86.00;;;;;;4860404;29;20065;-71
2022/04/25 05:40:16;;;;;;;22.50;9.68;;;1.70;86.00;;;;;;4859115;29;20431;-71
2022/04/25 05:42:45;;;;;;;19.08;8.65;;;1.70;86.10;;;;;;4850624;29;20050;-71
2022/04/25 05:45:16;;;;;;;23.83;8.82;;;1.80;86.00;;;;;;4860906;29;20050;-72
2022/04/25 05:47:44;;;;;;;24.33;10.23;;;1.80;85.90;;;;;;4860907;29;20053;-72
2022/04/25 05:53:00;;;;;;;26.83;8.85;;;1.90;85.90;;;;;;4859755;29;20045;-72
2022/04/25 05:55:29;;;;;;;21.17;9.10;;;2.00;86.00;;;;;;4856220;29;20045;-72
2022/04/25 05:58:00;;;;;;;22.42;8.88;;;2.20;86.00;;;;;;4854967;29;20065;-73
2022/04/25 06:00:28;;;;;;;19.30;8.93;;;2.20;85.90;;;;;;4859705;29;20045;-72
2022/04/25 06:02:56;;;;;;;29.27;9.52;;;2.40;85.80;;;;;;4848534;29;20050;-72
2022/04/25 06:05:24;;;;;;;20.58;8.32;;;2.50;85.80;;;;;;4861731;29;20411;-72
2022/04/25 06:07:52;;;;;;;21.27;7.55;;;2.70;85.70;;;;;;4847912;29;20093;-71
2022/04/25 06:10:22;;;;;;;21.77;7.03;;;2.80;85.60;;;;;;4859350;29;20060;-72
2022/04/25 06:12:52;;;;;;;18.58;7.10;;;2.90;85.50;;;;;;4861227;29;20057;-74
2022/04/25 06:15:24;;;;;;;20.25;6.75;;;3.00;85.40;;;;;;4860841;29;20602;-72
2022/04/25 06:17:54;;;;;;;17.50;7.53;;;3.20;85.40;;;;;;4859213;29;20153;-72
2022/04/25 06:20:23;;;;;;;19.67;6.30;;;3.30;85.20;;;;;;4861763;29;20064;-72
2022/04/25 06:22:56;;;;;;;15.88;5.10;;;3.40;85.10;;;;;;4861609;29;20053;-72
2022/04/25 06:25:25;;;;;;;14.70;4.57;;;3.50;85.00;;;;;;4861786;29;20061;-73
2022/04/25 06:27:53;;;;;;;14.30;4.70;;;3.70;84.80;;;;;;4838862;29;20057;-72
2022/04/25 06:30:28;;;;;;;16.52;4.32;;;3.80;84.50;;;;;;4860133;29;20045;-72
2022/04/25 06:33:00;;;;;;;13.98;3.72;;;3.90;84.20;;;;;;4842928;29;20057;-72
2022/04/25 06:35:28;;;;;;;21.43;4.17;;;4.00;84.00;;;;;;4844982;29;20053;-72
2022/04/25 06:37:56;;;;;;;8.48;3.80;;;4.10;83.80;;;;;;4861611;29;20301;-72
2022/04/25 06:40:24;;;;;;;13.35;3.97;;;4.10;83.60;;;;;;4844060;29;20061;-73
2022/04/25 06:42:53;;;;;;;15.52;3.95;;;4.20;83.50;;;;;;4861606;29;20072;-73
2022/04/25 06:45:21;;;;;;;12.82;4.25;;;4.30;83.40;;;;;;4859753;29;20053;-72
2022/04/25 06:47:50;;;;;;;16.13;4.20;;;4.40;83.20;;;;;;4858921;29;20060;-73
2022/04/25 06:50:18;;;;;;;15.95;3.90;;;4.50;83.10;;;;;;4840310;29;20056;-72
2022/04/25 06:52:45;;;;;;;10.50;3.63;;;4.70;82.90;;;;;;4858086;29;20510;-72
2022/04/25 06:55:13;;;;;;;14.15;3.90;;;4.80;82.60;;;;;;4859381;29;20083;-73
2022/04/25 06:57:42;;;;;;;11.52;3.70;;;5.00;82.30;;;;;;4827103;29;20053;-73
2022/04/25 07:00:11;;;;;;;10.80;3.33;;;5.10;82.00;;;;;;4855297;29;20049;-73
2022/04/25 07:02:59;;;;;;;12.35;3.03;;;5.20;81.70;;;;;;4855852;29;20050;-73
2022/04/25 07:05:27;;;;;;;9.57;2.88;;;5.40;81.30;;;;;;4860849;29;20395;-73
2022/04/25 07:07:55;;;;;;;12.80;2.70;;;5.50;80.90;;;;;;4858547;29;20070;-73
2022/04/25 07:10:22;;;;;;;13.48;2.90;;;5.60;80.50;;;;;;4835749;29;20045;-73
2022/04/25 07:12:50;;;;;;;13.82;3.78;;;5.70;80.10;;;;;;4860325;29;20068;-73
2022/04/25 07:15:19;;;;;;;14.30;2.78;;;5.80;79.80;;;;;;4842593;29;20050;-72
2022/04/25 07:17:50;;;;;;;13.02;3.13;;;6.00;79.50;;;;;;4859417;29;20053;-72
2022/04/25 07:20:19;;;;;;;13.43;2.97;;;6.00;79.10;;;;;;4860687;29;20049;-72
2022/04/25 07:31:05;;;;;;;9.02;2.80;;;6.40;77.50;;;;;;4860850;29;20499;-73
2022/04/25 07:33:35;;;;;;;9.30;2.88;;;6.50;77.20;;;;;;4843917;29;20077;-72
2022/04/25 07:36:03;;;;;;;10.68;2.80;;;6.50;77.00;;;;;;4852187;29;20060;-72
2022/04/25 07:38:31;;;;;;;8.65;2.95;;;6.60;76.60;;;;;;4858988;29;20064;-72
2022/04/25 07:41:00;;;;;;;8.65;2.38;;;6.70;76.50;;;;;;4842366;29;20245;-73
2022/04/25 07:43:46;;;;;;;10.88;2.88;;;6.80;76.20;;;;;;4856492;29;20049;-72
2022/04/25 07:46:16;;;;;;;9.55;2.90;;;7.10;75.70;;;;;;4845970;29;20064;-72
2022/04/25 07:48:44;;;;;;;9.02;2.97;;;7.30;74.90;;;;;;4860468;29;20419;-73
2022/04/25 07:51:12;;;;;;;9.23;2.50;;;7.40;74.20;;;;;;4861374;29;20069;-73
2022/04/25 07:53:39;;;;;;;11.02;3.08;;;7.40;73.50;;;;;;4843862;29;20057;-72
2022/04/25 07:56:07;;;;;;;7.97;2.67;;;7.40;73.40;;;;;;4860130;29;20064;-72
2022/04/25 07:58:35;;;;;;;8.98;3.47;;;7.30;73.20;;;;;;4860310;29;20053;-73
2022/04/25 08:01:04;;;;;;;6.05;2.58;;;7.40;73.20;;;;;;4860223;29;20045;-73
2022/04/25 08:03:34;;;;;;;9.50;2.53;;;7.40;73.20;;;;;;4860008;29;20057;-72
2022/04/25 08:06:04;;;;;;;7.25;2.22;;;7.50;72.70;;;;;;4860010;29;20049;-73
2022/04/25 08:08:36;;;;;;;11.98;2.90;;;7.60;72.50;;;;;;4859588;29;20507;-72
2022/04/25 08:11:03;;;;;;;6.45;2.70;;;7.70;72.30;;;;;;4860157;29;20049;-72
2022/04/25 08:19:03;;;;;;;5.43;2.10;;;8.10;71.20;;;;;;4860089;29;20407;-72
2022/04/25 08:21:31;;;;;;;9.35;2.13;;;8.10;70.60;;;;;;4859487;29;20060;-72
2022/04/25 08:23:58;;;;;;;8.85;2.03;;;8.20;70.30;;;;;;4860047;29;20061;-73
2022/04/25 08:26:26;;;;;;;4.70;1.73;;;8.40;69.70;;;;;;4859742;29;20053;-72
2022/04/25 08:28:54;;;;;;;7.60;1.60;;;8.60;69.20;;;;;;4858685;29;20072;-72
2022/04/25 08:31:32;;;;;;;5.70;1.63;;;8.80;68.50;;;;;;4860171;29;20419;-72
2022/04/25 08:34:01;;;;;;;11.20;1.42;;;8.90;67.40;;;;;;4859914;29;20060;-72
2022/04/25 08:36:30;;;;;;;7.90;1.73;;;9.10;66.10;;;;;;4860001;29;20479;-73
2022/04/25 08:38:58;;;;;;;9.18;1.50;;;9.10;65.40;;;;;;4859738;29;20064;-73
2022/04/25 08:41:45;;;;;;;8.90;1.95;;;9.10;64.90;;;;;;4843245;29;20050;-72
2022/04/25 08:44:19;;;;;;;13.02;1.83;;;9.20;64.50;;;;;;4860008;29;20510;-72
2022/04/25 08:46:51;;;;;;;4.18;1.60;;;9.30;64.30;;;;;;4859589;29;20057;-73
2022/04/25 08:49:19;;;;;;;4.10;1.63;;;9.40;63.70;;;;;;4858597;29;20060;-72
2022/04/25 08:51:49;;;;;;;3.88;1.67;;;9.60;62.80;;;;;;4858591;29;20056;-72
2022/04/25 08:54:17;;;;;;;4.38;1.67;;;9.80;62.50;;;;;;4859855;29;20061;-72
2022/04/25 08:56:47;;;;;;;6.18;1.60;;;9.90;61.60;;;;;;4859714;29;20057;-74
2022/04/25 08:59:15;;;;;;;7.60;1.70;;;10.00;61.10;;;;;;4842170;29;20050;-74
2022/04/25 09:01:42;;;;;;;4.63;1.77;;;10.00;60.30;;;;;;4841476;29;20046;-73
2022/04/25 09:04:10;;;;;;;4.60;1.60;;;10.00;60.30;;;;;;4841328;29;20050;-74
2022/04/25 09:06:39;;;;;;;6.13;1.52;;;10.10;60.20;;;;;;4841153;29;20057;-71
2022/04/25 09:09:07;;;;;;;6.43;2.00;;;10.00;60.00;;;;;;4841416;29;20076;-73
2022/04/25 09:14:21;;;;;;;7.97;1.83;;;10.10;60.10;;;;;;4840811;29;20519;-73
2022/04/25 09:16:50;;;;;;;5.13;1.73;;;10.20;60.10;;;;;;4839963;29;20038;-74
2022/04/25 09:19:18;;;;;;;3.70;1.52;;;10.30;59.70;;;;;;4840732;29;20065;-73
2022/04/25 09:21:46;;;;;;;7.18;1.55;;;10.50;59.30;;;;;;4844319;29;20057;-74
2022/04/25 09:24:20;;;;;;;6.47;1.92;;;10.70;58.80;;;;;;4844549;29;20054;-72
2022/04/25 09:27:08;;;;;;;4.88;1.88;;;10.90;57.80;;;;;;4844356;29;20038;-74
2022/04/25 09:29:37;;;;;;;4.20;1.60;;;10.90;57.90;;;;;;4844114;29;20160;-72
2022/04/25 09:32:06;;;;;;;5.78;1.63;;;11.00;57.50;;;;;;4844118;29;20054;-73
2022/04/25 09:37:37;;;;;;;7.45;1.90;;;11.20;56.30;;;;;;4827470;29;20053;-72
2022/04/25 09:40:06;;;;;;;8.10;2.28;;;11.30;55.70;;;;;;4844078;29;20520;-73
2022/04/25 09:42:33;;;;;;;5.38;1.80;;;11.30;55.60;;;;;;4844201;29;20058;-72
2022/04/25 09:45:01;;;;;;;9.55;1.90;;;11.40;55.20;;;;;;4828998;29;20038;-73
2022/04/25 09:47:36;;;;;;;5.97;1.90;;;11.50;54.80;;;;;;4830823;29;20061;-73
2022/04/25 09:50:07;;;;;;;5.60;1.77;;;11.70;54.70;;;;;;4844012;29;20054;-73
2022/04/25 09:52:49;;;;;;;7.30;1.85;;;11.80;54.20;;;;;;4844024;29;20053;-72
2022/04/25 09:55:17;;;;;;;6.63;1.97;;;11.90;54.20;;;;;;4843892;29;20053;-72
2022/04/25 09:57:46;;;;;;;7.60;2.10;;;12.10;53.30;;;;;;4833353;29;20057;-72
2022/04/25 10:00:36;;;;;;;7.78;2.78;;;12.10;53.10;;;;;;4861963;29;20411;-72
2022/04/25 10:03:05;;;;;;;6.70;2.00;;;12.10;53.00;;;;;;4862461;29;20441;-72
2022/04/25 10:05:52;;;;;;;9.70;2.00;;;12.20;53.00;;;;;;4861693;29;20527;-72
2022/04/25 10:08:19;;;;;;;12.48;2.17;;;12.20;52.50;;;;;;4862021;29;20058;-73
2022/04/25 10:10:49;;;;;;;5.70;1.80;;;12.20;52.20;;;;;;4845714;29;20057;-72
2022/04/25 10:13:18;;;;;;;8.35;1.88;;;12.00;52.00;;;;;;4860923;29;20420;-72
2022/04/25 10:15:46;;;;;;;5.88;1.70;;;11.90;52.20;;;;;;4845561;29;20393;-72
2022/04/25 10:18:15;;;;;;;6.22;2.10;;;11.80;52.30;;;;;;4875898;29;20057;-73
2022/04/25 10:20:46;;;;;;;4.22;1.80;;;11.80;52.50;;;;;;4861942;29;20550;-72
2022/04/25 10:23:15;;;;;;;6.55;2.10;;;11.80;52.10;;;;;;4861854;29;20399;-72
2022/04/25 10:25:54;;;;;;;5.38;2.00;;;12.10;52.20;;;;;;4861904;29;20057;-73
2022/04/25 10:28:33;;;;;;;5.13;1.98;;;12.30;51.30;;;;;;4861698;29;20072;-73
2022/04/25 10:31:10;;;;;;;6.30;1.65;;;12.50;50.90;;;;;;4860236;29;20412;-73
2022/04/25 10:33:56;;;;;;;7.63;1.75;;;12.70;50.60;;;;;;4861915;29;20052;-73
2022/04/25 10:36:39;;;;;;;6.80;1.98;;;12.80;50.20;;;;;;4861494;29;20523;-73
2022/04/25 10:39:15;;;;;;;7.70;1.98;;;12.80;50.30;;;;;;4861603;29;20058;-73
2022/04/25 10:44:44;;;;;;;9.65;1.90;;;12.80;49.90;;;;;;4861692;29;20396;-74
2022/04/25 10:47:12;;;;;;;;;;;12.70;50.10;;;;;;4861955;29;20380;-73
2022/04/25 10:49:48;;;;;;;8.90;2.15;;;12.60;50.20;;;;;;4861387;29;19931;-73
2022/04/25 10:52:33;;;;;;;8.43;2.03;;;12.70;50.50;;;;;;4861279;29;20049;-73
2022/04/25 10:55:23;;;;;;;9.68;2.30;;;12.80;50.20;;;;;;4859911;29;20461;-73
2022/04/25 10:58:14;;;;;;;12.40;2.38;;;12.90;50.00;;;;;;4860968;29;20068;-73
2022/04/25 11:00:44;;;;;;;10.10;2.28;;;13.20;49.70;;;;;;4861759;29;20491;-73
2022/04/25 11:03:14;;;;;;;6.57;1.75;;;13.30;49.00;;;;;;4861236;29;20057;-73
2022/04/25 11:05:47;;;;;;;5.45;1.70;;;13.40;47.80;;;;;;4860617;29;20046;-73
2022/04/25 11:08:23;;;;;;;7.38;1.85;;;13.30;47.70;;;;;;4860963;29;20058;-73
2022/04/25 11:10:57;;;;;;;6.65;2.00;;;13.30;47.20;;;;;;4861012;29;20072;-73
2022/04/25 11:13:28;;;;;;;3.42;1.70;;;13.20;47.30;;;;;;4860755;29;20396;-73
2022/04/25 11:15:57;;;;;;;6.40;2.00;;;13.30;48.30;;;;;;4860989;29;20054;-73
2022/04/25 11:18:34;;;;;;;3.58;1.70;;;13.90;48.40;;;;;;4860634;29;20391;-73
2022/04/25 11:21:07;;;;;;;5.07;1.75;;;14.50;47.70;;;;;;4860752;29;20424;-73
2022/04/25 11:23:47;;;;;;;7.38;1.88;;;14.90;46.50;;;;;;4850357;29;20046;-73
2022/04/25 11:26:21;;;;;;;9.00;2.13;;;14.90;45.50;;;;;;4860049;29;20389;-73
2022/04/25 11:28:55;;;;;;;4.63;1.90;;;14.80;45.70;;;;;;4872135;29;20041;-73
2022/04/25 11:31:23;;;;;;;7.50;1.90;;;14.80;45.60;;;;;;4860915;29;20053;-73
2022/04/25 11:34:01;;;;;;;6.47;1.83;;;14.80;46.00;;;;;;4859317;29;20060;-73
2022/04/25 11:36:30;;;;;;;11.63;2.33;;;14.70;46.20;;;;;;4860631;29;20527;-73
2022/04/25 11:41:45;;;;;;;10.00;1.98;;;15.00;46.80;;;;;;4861349;29;20052;-73
2022/04/25 11:44:13;;;;;;;8.13;2.22;;;15.20;45.90;;;;;;4862290;29;20045;-73
2022/04/25 11:46:41;;;;;;;5.03;2.20;;;15.20;45.80;;;;;;4873631;29;20045;-73
2022/04/25 11:49:09;;;;;;;7.82;2.67;;;15.10;46.20;;;;;;4849282;29;20045;-75
2022/04/25 11:51:39;;;;;;;9.32;2.15;;;15.00;46.20;;;;;;4859730;29;20415;-73
2022/04/25 11:54:10;;;;;;;5.97;2.05;;;14.90;46.30;;;;;;4858883;29;20385;-73
2022/04/25 11:56:40;;;;;;;5.50;1.95;;;14.80;46.90;;;;;;4859911;29;20049;-73
2022/04/25 11:59:12;;;;;;;10.07;2.25;;;14.80;46.80;;;;;;4859389;29;20065;-73
2022/04/25 12:01:46;;;;;;;4.63;2.03;;;14.80;46.40;;;;;;4854320;29;20064;-72
2022/04/25 12:04:24;;;;;;;5.03;2.20;;;14.70;46.90;;;;;;4853254;29;20397;-72
2022/04/25 12:07:06;;;;;;;8.38;2.60;;;14.40;47.20;;;;;;4854621;29;20098;-72
2022/04/25 12:18:20;;;;;;;6.88;2.22;;;14.20;49.30;;;;;;4859701;29;20391;-73
2022/04/25 12:21:11;;;;;;;7.30;2.00;;;14.10;49.70;;;;;;4859721;29;20436;-73
2022/04/25 12:23:46;;;;;;;5.63;1.92;;;14.20;49.30;;;;;;4842866;29;20061;-74
2022/04/25 12:26:22;;;;;;;3.97;2.00;;;14.20;48.90;;;;;;4859692;29;20057;-73
2022/04/25 12:28:53;;;;;;;9.82;2.20;;;14.10;48.80;;;;;;4843648;29;20124;-73
2022/04/25 12:31:20;;;;;;;8.52;2.60;;;14.20;48.80;;;;;;4858208;29;20053;-73
2022/04/25 12:33:50;;;;;;;4.40;2.03;;;14.50;48.70;;;;;;4859338;29;20049;-73
2022/04/25 12:36:28;;;;;;;4.55;1.92;;;14.80;48.00;;;;;;4859178;29;20057;-73
2022/04/25 12:39:03;;;;;;;6.85;2.28;;;14.90;47.30;;;;;;4859328;29;20148;-73
2022/04/25 12:41:33;;;;;;;7.65;2.17;;;14.80;47.60;;;;;;4859042;29;20045;-73
2022/04/25 12:44:10;;;;;;;3.25;2.00;;;14.90;47.50;;;;;;4848922;29;20396;-72
2022/04/25 12:46:39;;;;;;;7.47;1.90;;;15.00;47.40;;;;;;4839865;29;20077;-72
2022/04/25 12:49:14;;;;;;;6.35;2.10;;;15.10;46.90;;;;;;4841106;29;20404;-73
2022/04/25 12:51:51;;;;;;;5.90;2.35;;;15.10;45.90;;;;;;4841110;29;20508;-73
2022/04/25 12:54:20;;;;;;;4.90;2.20;;;14.80;46.00;;;;;;4842062;29;20098;-72
2022/04/25 12:56:49;;;;;;;5.13;2.22;;;14.80;46.50;;;;;;4844665;29;20065;-72
2022/04/25 12:59:24;;;;;;;7.75;2.20;;;14.70;46.80;;;;;;4847855;29;20052;-72
2022/04/25 13:02:09;;;;;;;5.70;2.30;;;14.80;46.80;;;;;;4862935;29;20049;-73
2022/04/25 13:04:48;;;;;;;5.72;2.55;;;15.10;47.20;;;;;;4863199;29;20464;-73
2022/04/25 13:07:15;;;;;;;5.28;2.20;;;15.50;46.00;;;;;;4858193;29;20046;-73
2022/04/25 13:09:43;;;;;;;4.05;2.20;;;15.60;45.60;;;;;;4855719;29;20050;-73
2022/04/25 13:12:16;;;;;;;2.25;1.75;;;15.60;45.50;;;;;;4875593;29;20064;-72
2022/04/25 13:14:44;;;;;;;3.75;2.03;;;15.80;45.30;;;;;;4862420;29;20061;-73
2022/04/25 13:17:12;;;;;;;9.80;2.50;;;16.80;44.50;;;;;;4862582;29;20058;-73
2022/04/25 13:19:40;;;;;;;9.32;2.55;;;17.90;42.70;;;;;;4862418;29;20052;-72
2022/04/25 13:22:08;;;;;;;2.78;1.65;;;18.90;41.10;;;;;;4862982;29;20084;-73
2022/04/25 13:24:37;;;;;;;8.15;2.25;;;19.30;40.10;;;;;;4860970;29;20400;-73
2022/04/25 13:27:08;;;;;;;6.78;2.30;;;19.20;39.20;;;;;;4861593;29;20053;-73
2022/04/25 13:29:36;;;;;;;6.78;2.35;;;18.60;39.50;;;;;;4862421;29;20516;-74
2022/04/25 13:32:04;;;;;;;8.23;2.47;;;17.80;40.20;;;;;;4862747;29;20053;-73
2022/04/25 13:34:32;;;;;;;5.80;2.20;;;17.10;41.40;;;;;;4862298;29;20048;-73
2022/04/25 13:37:02;;;;;;;7.82;2.58;;;16.40;42.30;;;;;;4862413;29;20050;-73
2022/04/25 13:39:30;;;;;;;6.22;2.53;;;15.90;43.10;;;;;;4865489;29;20053;-73
2022/04/25 13:42:01;;;;;;;9.00;2.67;;;15.50;43.90;;;;;;4843782;29;20046;-73
2022/04/25 13:44:29;;;;;;;4.63;2.42;;;15.30;44.60;;;;;;4843122;29;20056;-74
2022/04/25 13:46:58;;;;;;;5.68;2.38;;;15.10;45.20;;;;;;4844447;29;20042;-73
2022/04/25 13:49:26;;;;;;;6.75;2.60;;;14.90;45.70;;;;;;4843798;29;20050;-73
2022/04/25 13:51:54;;;;;;;5.55;2.28;;;14.90;46.20;;;;;;4845189;29;20065;-72